Time;durP1;ratioP1;P1;durP2;ratioP2;P2;SDS_P1;SDS_P2;PMS_P1;PMS_P2;Temp;Humidity;BMP_temperature;BMP_pressure;BME280_temperature;BME280_humidity;BME280_pressure;Samples;Min_cycle;Max_cycle;Signal;HPM_P1;HPM_P2
2022/09/17 00:03:35;;;;;;;21.48;3.47;;;11.80;99.90;;;;;;4892581;29;20489;-88
2022/09/17 00:06:48;;;;;;;16.77;2.67;;;12.20;99.90;;;;;;4877889;29;20505;-88
2022/09/17 00:09:23;;;;;;;20.38;3.47;;;11.70;99.90;;;;;;4892788;29;20109;-87
2022/09/17 00:11:51;;;;;;;19.80;2.95;;;11.80;99.90;;;;;;4877036;29;20088;-88
2022/09/17 00:14:17;;;;;;;19.83;2.97;;;11.80;99.90;;;;;;4893069;29;20045;-87
2022/09/17 00:16:45;;;;;;;22.85;2.90;;;11.90;99.90;;;;;;4893523;29;20135;-88
2022/09/17 00:19:15;;;;;;;17.25;3.05;;;11.90;99.90;;;;;;4892455;29;20491;-86
2022/09/17 00:24:30;;;;;;;18.02;2.92;;;12.00;99.90;;;;;;4965115;23;20536;-87
2022/09/17 00:26:59;;;;;;;17.80;2.95;;;12.00;99.90;;;;;;4877053;29;20494;-88
2022/09/17 00:29:34;;;;;;;15.38;2.65;;;12.00;99.90;;;;;;4877235;29;20048;-87
2022/09/17 01:55:45;;;;;;;21.73;3.30;;;11.50;99.90;;;;;;4857659;29;20703;-88
2022/09/17 01:59:02;;;;;;;24.75;3.72;;;11.30;99.90;;;;;;5059333;24;20073;-88
2022/09/17 02:02:37;;;;;;;23.20;3.03;;;11.50;99.90;;;;;;4840639;29;20082;-87
2022/09/17 02:08:57;;;;;;;23.90;4.03;;;11.40;99.90;;;;;;5155440;23;20056;-89
2022/09/17 02:12:08;;;;;;;20.88;3.25;;;11.30;99.90;;;;;;4872413;29;20100;-89
2022/09/17 02:14:49;;;;;;;23.97;3.10;;;11.10;99.90;;;;;;4841457;29;20057;-89
2022/09/17 02:18:10;;;;;;;;;;;;;;;;;;;;;
2022/09/17 02:21:08;;;;;;;23.83;4.25;;;11.00;99.90;;;;;;4851003;29;20094;-89
2022/09/17 02:24:02;;;;;;;22.13;2.53;;;10.70;99.90;;;;;;4857237;29;20057;-88
2022/09/17 02:27:05;;;;;;;22.83;3.00;;;10.90;99.90;;;;;;4856280;29;20061;-88
2022/09/17 02:30:09;;;;;;;16.08;2.40;;;10.90;99.90;;;;;;4849159;29;20415;-89
2022/09/17 02:35:29;;;;;;;25.13;3.90;;;10.90;99.90;;;;;;4983863;23;20070;-88
2022/09/17 02:39:14;;;;;;;16.63;3.17;;;10.90;99.90;;;;;;4881628;29;20060;-88
2022/09/17 02:45:38;;;;;;;23.20;3.10;;;11.00;99.90;;;;;;4874914;29;20060;-89
2022/09/17 02:48:28;;;;;;;19.08;2.72;;;10.90;99.90;;;;;;4864281;29;20126;-88
2022/09/17 02:51:19;;;;;;;19.52;2.70;;;10.90;99.90;;;;;;4861690;29;20057;-88
2022/09/17 02:54:04;;;;;;;20.42;2.47;;;10.80;99.90;;;;;;4862493;29;20064;-88
2022/09/17 02:58:04;;;;;;;17.90;3.70;;;10.80;99.90;;;;;;4935129;23;20076;-89
2022/09/17 03:01:01;;;;;;;23.50;3.05;;;10.80;99.90;;;;;;5097370;23;20541;-88
2022/09/17 03:04:01;;;;;;;18.05;2.58;;;10.80;99.90;;;;;;4845746;29;20081;-88
2022/09/17 03:07:10;;;;;;;17.40;2.78;;;10.90;99.90;;;;;;4860796;29;20116;-89
2022/09/17 03:13:16;;;;;;;18.02;2.45;;;11.00;99.90;;;;;;4876006;29;20056;-87
2022/09/17 03:15:45;;;;;;;25.65;2.90;;;10.90;99.90;;;;;;4860009;29;20060;-88
2022/09/17 03:18:26;;;;;;;16.40;2.85;;;10.80;99.90;;;;;;4845426;29;20112;-88
2022/09/17 03:21:06;;;;;;;19.48;3.53;;;11.00;99.90;;;;;;4844536;29;20057;-87
2022/09/17 03:23:38;;;;;;;21.17;2.80;;;11.00;99.90;;;;;;4844221;29;20052;-87
2022/09/17 03:26:04;;;;;;;20.42;2.88;;;10.90;99.90;;;;;;4844426;29;20072;-87
2022/09/17 03:28:39;;;;;;;26.83;2.38;;;10.80;99.90;;;;;;4843791;29;20485;-87
2022/09/17 03:34:26;;;;;;;29.38;4.30;;;10.70;99.90;;;;;;4875297;29;20057;-87
2022/09/17 03:37:22;;;;;;;27.60;2.78;;;10.20;99.90;;;;;;4860038;29;20052;-87
2022/09/17 03:43:25;;;;;;;17.38;3.10;;;10.60;99.90;;;;;;5075499;23;20052;-87
2022/09/17 03:46:19;;;;;;;23.10;2.97;;;10.50;99.90;;;;;;4864935;23;20061;-87
2022/09/17 04:10:08;;;;;;;;;;;;;;;;;;;;;
2022/09/17 04:12:51;;;;;;;11.32;2.05;;;10.80;99.90;;;;;;4877316;29;20057;-88
2022/09/17 04:15:56;;;;;;;18.70;2.42;;;10.80;99.90;;;;;;4898370;23;20110;-87
2022/09/17 04:19:04;;;;;;;21.92;2.60;;;10.70;99.90;;;;;;4833665;29;20114;-88
2022/09/17 04:28:43;;;;;;;25.15;2.80;;;10.50;99.90;;;;;;4880995;29;20109;-88
2022/09/17 04:34:22;;;;;;;21.65;2.40;;;10.50;99.90;;;;;;4898794;23;20387;-88
2022/09/17 04:36:55;;;;;;;23.55;3.28;;;10.50;99.90;;;;;;4861380;29;20147;-87
2022/09/17 04:42:55;;;;;;;19.23;2.20;;;10.40;99.90;;;;;;4832196;29;20091;-87
2022/09/17 04:45:32;;;;;;;15.52;2.00;;;10.40;99.90;;;;;;4869610;29;20521;-87
2022/09/17 04:48:10;;;;;;;15.20;2.13;;;10.40;99.90;;;;;;4878485;29;20052;-88
2022/09/17 04:51:00;;;;;;;18.63;2.35;;;10.50;99.90;;;;;;4862328;29;20067;-88
2022/09/17 04:53:54;;;;;;;20.42;3.05;;;10.50;99.90;;;;;;4860435;29;20075;-87
2022/09/17 04:56:26;;;;;;;13.50;2.13;;;10.50;99.90;;;;;;4857152;29;20060;-87
2022/09/17 04:58:52;;;;;;;19.70;2.67;;;10.50;99.90;;;;;;4860355;29;20041;-88
2022/09/17 05:01:24;;;;;;;17.88;2.47;;;10.50;99.90;;;;;;4875989;29;20056;-88
2022/09/17 05:03:49;;;;;;;18.45;2.22;;;10.50;99.90;;;;;;4876616;29;20040;-89
2022/09/17 05:06:15;;;;;;;16.00;2.28;;;10.30;99.90;;;;;;4861525;29;20144;-88
2022/09/17 05:08:41;;;;;;;13.55;2.08;;;10.50;99.90;;;;;;4875426;29;20076;-88
2022/09/17 05:11:26;;;;;;;17.35;2.60;;;10.50;99.90;;;;;;4877638;29;20071;-87
2022/09/17 05:13:58;;;;;;;16.70;2.22;;;10.40;99.90;;;;;;4860926;29;20064;-87
2022/09/17 05:16:26;;;;;;;15.95;2.45;;;10.30;99.90;;;;;;4876191;29;20131;-87
2022/09/17 05:18:52;;;;;;;19.38;2.00;;;10.30;99.90;;;;;;4857050;29;20566;-87
2022/09/17 05:21:19;;;;;;;18.27;2.53;;;10.30;99.90;;;;;;4842359;29;20053;-87
2022/09/17 05:23:54;;;;;;;14.10;2.40;;;10.30;99.90;;;;;;4857228;29;20053;-87
2022/09/17 05:26:20;;;;;;;10.90;1.90;;;10.20;99.90;;;;;;4857664;29;20053;-87
2022/09/17 05:28:46;;;;;;;17.45;2.45;;;10.20;99.90;;;;;;4857522;29;20459;-87
2022/09/17 05:31:12;;;;;;;23.95;2.38;;;10.20;99.90;;;;;;4857699;29;20518;-88
2022/09/17 05:34:06;;;;;;;17.60;2.75;;;10.20;99.90;;;;;;4857517;29;20105;-87
2022/09/17 05:39:45;;;;;;;18.45;2.78;;;10.50;99.90;;;;;;4858286;29;20072;-87
2022/09/17 07:08:59;;;;;;;;;;;;;;;;;;;;;
2022/09/17 07:14:52;;;;;;;25.90;2.33;;;12.00;99.90;;;;;;4849795;29;20128;-88
2022/09/17 08:21:17;;;;;;;9.95;1.80;;;12.90;99.90;;;;;;4837742;29;20140;-88
2022/09/17 08:23:44;;;;;;;12.77;2.00;;;12.90;99.90;;;;;;4836286;29;20545;-87
2022/09/17 08:26:27;;;;;;;13.80;2.55;;;13.10;99.90;;;;;;4837273;29;20121;-87
2022/09/17 08:29:02;;;;;;;16.10;2.28;;;13.10;99.90;;;;;;4822377;29;20054;-87
2022/09/17 08:31:37;;;;;;;18.60;2.20;;;13.10;99.90;;;;;;4837167;29;20129;-88
2022/09/17 08:34:24;;;;;;;16.42;2.33;;;13.10;99.90;;;;;;4821917;29;20263;-87
2022/09/17 08:37:02;;;;;;;15.95;2.55;;;13.20;99.90;;;;;;4822059;29;20169;-88
2022/09/17 08:48:40;;;;;;;13.18;1.60;;;14.10;99.90;;;;;;5146684;23;20064;-88
2022/09/17 08:52:05;;;;;;;;;;;;;;;;;;;;;
2022/09/17 11:20:27;;;;;;;15.98;2.13;;;14.30;99.90;;;;;;4749565;30;20175;-88
2022/09/17 11:23:23;;;;;;;15.20;2.33;;;14.60;99.90;;;;;;4748414;30;20055;-88
2022/09/17 11:26:47;;;;;;;16.33;1.98;;;14.70;99.90;;;;;;4760934;30;20099;-86
2022/09/17 11:29:34;;;;;;;14.23;2.83;;;14.70;99.90;;;;;;4748385;30;20112;-88
2022/09/17 11:32:34;;;;;;;15.52;2.50;;;14.80;99.90;;;;;;4745634;30;20060;-87
2022/09/17 11:35:20;;;;;;;18.33;2.38;;;14.90;99.90;;;;;;4747670;30;20118;-87
2022/09/17 11:38:00;;;;;;;11.85;1.85;;;15.10;99.90;;;;;;4747268;30;20044;-84
2022/09/17 11:41:08;;;;;;;14.55;2.83;;;15.30;99.90;;;;;;4746971;30;20062;-89
2022/09/17 11:43:39;;;;;;;17.33;2.17;;;15.40;99.90;;;;;;4762484;30;20530;-87
2022/09/17 11:46:37;;;;;;;14.18;2.10;;;15.40;99.90;;;;;;4747951;30;20192;-87
2022/09/17 11:49:31;;;;;;;17.05;2.15;;;15.40;99.90;;;;;;4746094;30;20060;-85
2022/09/17 11:52:04;;;;;;;19.55;2.70;;;15.40;99.90;;;;;;4747410;30;20060;-84
2022/09/17 11:54:39;;;;;;;17.48;2.78;;;15.40;99.90;;;;;;4746008;30;20138;-86
2022/09/17 11:57:16;;;;;;;15.93;2.90;;;15.30;99.90;;;;;;4747077;30;20490;-86
2022/09/17 11:59:48;;;;;;;12.38;2.17;;;15.30;99.90;;;;;;4747078;30;20060;-85
2022/09/17 12:02:37;;;;;;;12.50;2.08;;;15.10;99.90;;;;;;4746288;30;20105;-86
2022/09/17 12:05:07;;;;;;;17.33;2.47;;;15.00;99.90;;;;;;4767591;30;20071;-86
2022/09/17 12:07:57;;;;;;;10.43;1.70;;;14.80;99.90;;;;;;4746995;30;20084;-87
2022/09/17 12:10:35;;;;;;;18.95;2.20;;;14.60;99.90;;;;;;4746489;30;20521;-87
2022/09/17 12:13:08;;;;;;;15.48;2.13;;;14.60;99.90;;;;;;4735040;30;20064;-87
2022/09/17 12:15:42;;;;;;;15.68;2.83;;;14.70;99.90;;;;;;4761559;30;20200;-86
2022/09/17 12:18:23;;;;;;;16.83;2.22;;;14.90;99.90;;;;;;4746144;30;20501;-86
2022/09/17 12:20:53;;;;;;;18.02;2.22;;;15.10;99.90;;;;;;4746973;30;20063;-85
2022/09/17 12:23:34;;;;;;;18.30;2.60;;;15.40;99.90;;;;;;4745286;30;20055;-86
2022/09/17 12:26:19;;;;;;;15.55;2.83;;;15.60;99.90;;;;;;4746486;30;20127;-87
2022/09/17 12:29:10;;;;;;;18.50;2.63;;;15.60;99.90;;;;;;4776218;30;20561;-87
2022/09/17 12:32:00;;;;;;;10.77;1.60;;;15.30;99.90;;;;;;4744847;30;20101;-86
2022/09/17 12:34:46;;;;;;;15.02;1.42;;;14.80;99.90;;;;;;4760704;30;20060;-87
2022/09/17 12:38:02;;;;;;;10.90;1.23;;;14.50;99.90;;;;;;4746443;30;20522;-88
2022/09/17 12:44:58;;;;;;;12.20;2.47;;;14.80;99.90;;;;;;4730560;30;20057;-88
2022/09/17 12:48:20;;;;;;;12.40;1.88;;;14.80;99.90;;;;;;4766762;30;20440;-87
2022/09/17 12:51:05;;;;;;;42.58;5.30;;;14.70;99.90;;;;;;4747353;30;20409;-86
2022/09/17 12:53:39;;;;;;;17.63;2.25;;;15.00;99.90;;;;;;4739303;30;20091;-86
2022/09/17 12:56:28;;;;;;;29.80;4.68;;;15.00;99.90;;;;;;4746559;30;20130;-87
2022/09/17 12:59:19;;;;;;;106.78;15.18;;;14.90;99.90;;;;;;4761755;30;20371;-87
2022/09/17 13:02:01;;;;;;;23.75;2.55;;;15.00;99.90;;;;;;4749145;30;20406;-86
2022/09/17 13:04:28;;;;;;;65.93;8.18;;;15.00;99.90;;;;;;4744492;30;20096;-87
2022/09/17 13:07:20;;;;;;;41.40;5.13;;;15.00;99.90;;;;;;4727988;30;20177;-87
2022/09/17 13:10:11;;;;;;;17.02;2.15;;;15.00;99.90;;;;;;4742841;30;20071;-87
2022/09/17 13:12:52;;;;;;;15.38;2.97;;;15.00;99.90;;;;;;4724163;30;20454;-86
2022/09/17 13:15:34;;;;;;;26.73;3.35;;;15.00;99.90;;;;;;4714575;30;20119;-85
2022/09/17 13:18:30;;;;;;;14.05;2.47;;;14.90;99.90;;;;;;4713947;30;20118;-86
2022/09/17 13:21:16;;;;;;;17.38;2.45;;;14.70;99.90;;;;;;4728012;30;20066;-85
2022/09/17 13:23:50;;;;;;;11.70;2.05;;;14.60;99.90;;;;;;4727420;30;20156;-86
2022/09/17 13:26:34;;;;;;;20.13;2.53;;;14.70;99.90;;;;;;4732393;30;20383;-94
2022/09/17 13:29:08;;;;;;;14.02;3.15;;;14.70;99.90;;;;;;4730927;30;20056;-94
2022/09/17 13:31:34;;;;;;;23.05;2.08;;;14.70;99.90;;;;;;4750557;30;20048;-96
2022/09/17 13:34:19;;;;;;;15.68;2.55;;;14.80;99.90;;;;;;4733417;30;20067;-93
2022/09/17 13:36:54;;;;;;;11.15;2.08;;;14.90;99.90;;;;;;4715995;30;20052;-96
2022/09/17 13:39:39;;;;;;;13.20;2.10;;;14.90;99.90;;;;;;4744472;30;20114;-94
2022/09/17 13:42:28;;;;;;;14.60;1.88;;;15.20;99.90;;;;;;4735164;30;20052;-96
2022/09/17 13:45:09;;;;;;;24.35;2.63;;;15.20;99.90;;;;;;4735906;30;20056;-92
2022/09/17 13:48:30;;;;;;;22.23;2.40;;;15.30;99.90;;;;;;4736023;30;20075;-94
2022/09/17 13:50:56;;;;;;;15.98;2.38;;;15.30;99.90;;;;;;4720725;30;20084;-93
2022/09/17 13:53:37;;;;;;;17.75;3.35;;;15.20;99.90;;;;;;4719431;30;20052;-93
2022/09/17 13:56:33;;;;;;;18.20;2.60;;;15.20;99.90;;;;;;4720324;30;20049;-94
2022/09/17 13:59:11;;;;;;;12.50;2.00;;;15.00;99.90;;;;;;4716352;30;20621;-95
2022/09/17 14:02:02;;;;;;;14.38;1.98;;;15.00;99.90;;;;;;4715359;30;20100;-94
2022/09/17 14:04:46;;;;;;;15.25;1.90;;;15.00;99.90;;;;;;4715401;30;20091;-91
2022/09/17 14:07:34;;;;;;;13.60;2.47;;;15.00;99.90;;;;;;4714558;30;20339;-96
2022/09/17 14:10:20;;;;;;;12.80;1.98;;;15.00;99.90;;;;;;4741625;30;20061;-90
2022/09/17 14:12:48;;;;;;;13.43;2.28;;;14.90;99.90;;;;;;4712677;30;20065;-90
2022/09/17 14:15:34;;;;;;;14.32;2.47;;;14.90;99.90;;;;;;4714461;30;20063;-91
2022/09/17 14:18:02;;;;;;;15.27;2.67;;;14.80;99.90;;;;;;4738510;30;20059;-88
2022/09/17 14:20:31;;;;;;;19.05;2.33;;;14.70;99.90;;;;;;4731979;30;20044;-93
2022/09/17 14:23:00;;;;;;;12.70;1.90;;;14.80;99.90;;;;;;4734550;30;20056;-84
2022/09/17 14:25:39;;;;;;;16.15;3.08;;;14.70;99.90;;;;;;4733024;30;20047;-84
2022/09/17 14:28:30;;;;;;;18.50;2.55;;;14.70;99.90;;;;;;4748215;30;20052;-83
2022/09/17 14:30:55;;;;;;;20.30;2.47;;;14.70;99.90;;;;;;4733111;30;20057;-85
2022/09/17 14:33:27;;;;;;;10.93;1.40;;;14.60;99.90;;;;;;4747612;30;20063;-84
2022/09/17 14:36:07;;;;;;;9.20;1.77;;;14.50;99.90;;;;;;4748206;30;20489;-84
2022/09/17 14:38:43;;;;;;;16.13;2.28;;;14.40;99.90;;;;;;4747420;30;20052;-84
2022/09/17 14:41:10;;;;;;;44.05;6.47;;;14.30;99.90;;;;;;4747722;30;20147;-85
2022/09/17 14:43:52;;;;;;;79.90;10.93;;;14.20;99.90;;;;;;4733072;30;20059;-83
2022/09/17 14:46:20;;;;;;;64.85;9.45;;;14.20;99.90;;;;;;4739403;30;20516;-85
2022/09/17 14:48:46;;;;;;;27.95;4.68;;;14.30;99.90;;;;;;4761527;30;20526;-83
2022/09/17 14:51:17;;;;;;;22.20;2.92;;;14.30;99.90;;;;;;4733817;30;20052;-83
2022/09/17 14:53:44;;;;;;;36.10;5.65;;;14.40;99.90;;;;;;4732052;30;20462;-83
2022/09/17 14:56:15;;;;;;;20.30;2.95;;;14.40;99.90;;;;;;4732784;30;20052;-83
2022/09/17 14:58:45;;;;;;;18.75;2.28;;;14.40;99.90;;;;;;4731832;30;20067;-83
2022/09/17 15:01:24;;;;;;;15.73;2.78;;;14.40;99.90;;;;;;4747516;30;20048;-83
2022/09/17 15:04:08;;;;;;;12.88;2.20;;;14.50;99.90;;;;;;4741472;30;20543;-83
2022/09/17 15:06:34;;;;;;;14.73;1.88;;;14.70;99.90;;;;;;4743232;30;20060;-84
2022/09/17 15:09:00;;;;;;;16.95;2.15;;;14.70;99.90;;;;;;4732517;30;20048;-84
2022/09/17 15:11:27;;;;;;;12.05;1.80;;;14.40;99.90;;;;;;4733525;30;20529;-84
2022/09/17 15:13:53;;;;;;;13.60;2.75;;;14.20;99.90;;;;;;4731376;30;20103;-82
2022/09/17 15:16:24;;;;;;;15.82;2.33;;;13.90;99.90;;;;;;4762056;30;20179;-84
2022/09/17 15:18:57;;;;;;;13.10;2.10;;;13.90;99.90;;;;;;4731777;30;20135;-83
2022/09/17 15:21:23;;;;;;;12.23;1.90;;;13.90;99.90;;;;;;4747277;30;20091;-83
2022/09/17 15:23:52;;;;;;;16.88;2.05;;;13.90;99.90;;;;;;4759666;30;20489;-83
2022/09/17 15:26:25;;;;;;;19.00;2.50;;;13.90;99.90;;;;;;4731862;30;20052;-83
2022/09/17 15:28:54;;;;;;;16.10;2.17;;;13.90;99.90;;;;;;4744420;30;20051;-84
2022/09/17 15:31:20;;;;;;;11.93;1.90;;;13.80;99.90;;;;;;4746079;30;20402;-82
2022/09/17 15:33:46;;;;;;;20.33;2.50;;;13.70;99.90;;;;;;4731251;30;20060;-83
2022/09/17 15:36:21;;;;;;;17.42;2.35;;;13.60;99.90;;;;;;4731689;30;20515;-85
2022/09/17 15:38:47;;;;;;;12.27;1.80;;;13.50;99.90;;;;;;4745585;30;20056;-85
2022/09/17 15:41:33;;;;;;;13.07;1.73;;;13.50;99.90;;;;;;4744613;30;20060;-92
2022/09/17 15:44:13;;;;;;;15.15;1.90;;;13.50;99.90;;;;;;4726159;30;20059;-85
2022/09/17 15:46:39;;;;;;;8.50;1.52;;;13.50;99.90;;;;;;4732138;30;20052;-85
2022/09/17 15:49:25;;;;;;;13.95;3.00;;;13.60;99.90;;;;;;4731570;30;20056;-83
2022/09/17 15:51:51;;;;;;;12.82;1.48;;;13.60;99.90;;;;;;4731911;30;20551;-84
2022/09/17 15:54:29;;;;;;;11.43;1.80;;;13.60;99.90;;;;;;4729176;30;20063;-83
2022/09/17 15:56:59;;;;;;;9.18;1.30;;;13.50;99.90;;;;;;4729922;30;20075;-86
2022/09/17 15:59:29;;;;;;;9.80;1.48;;;13.40;99.90;;;;;;4728352;30;20445;-87
2022/09/17 16:01:57;;;;;;;9.15;1.45;;;13.30;99.90;;;;;;4731823;30;20055;-85
2022/09/17 16:04:26;;;;;;;9.75;1.40;;;13.10;99.90;;;;;;4745876;30;20040;-85
2022/09/17 16:06:58;;;;;;;9.13;1.15;;;13.00;99.90;;;;;;4732182;30;20044;-86
2022/09/17 16:09:36;;;;;;;8.68;1.40;;;12.90;99.90;;;;;;4731690;30;20096;-87
2022/09/17 16:12:02;;;;;;;13.27;2.30;;;12.90;99.90;;;;;;4725961;30;20151;-86
2022/09/17 16:14:28;;;;;;;8.48;1.50;;;12.90;99.90;;;;;;4714882;30;20179;-85
2022/09/17 16:16:55;;;;;;;10.50;1.98;;;12.90;99.90;;;;;;4743893;30;20104;-86
2022/09/17 16:19:21;;;;;;;8.90;1.50;;;12.90;99.90;;;;;;4743734;30;20061;-85
2022/09/17 16:21:47;;;;;;;14.95;1.52;;;12.90;99.90;;;;;;4714875;30;20045;-86
2022/09/17 16:24:13;;;;;;;13.27;1.55;;;12.80;99.90;;;;;;4713736;30;20056;-85
2022/09/17 16:26:39;;;;;;;10.63;1.88;;;12.80;99.90;;;;;;4743618;30;20048;-84
2022/09/17 16:29:13;;;;;;;15.65;2.25;;;12.90;99.90;;;;;;4714613;30;20060;-89
2022/09/17 16:31:40;;;;;;;15.75;1.73;;;13.00;99.90;;;;;;4721439;30;20041;-87
2022/09/17 16:34:09;;;;;;;12.07;1.98;;;13.00;99.90;;;;;;4731770;30;20389;-87
2022/09/17 16:36:35;;;;;;;15.45;1.83;;;13.10;99.90;;;;;;4732698;30;20624;-86
2022/09/17 16:39:21;;;;;;;11.80;1.55;;;13.10;99.90;;;;;;4729568;30;20543;-87
2022/09/17 16:41:53;;;;;;;9.57;1.63;;;13.10;99.90;;;;;;4747079;30;20572;-86
2022/09/17 16:44:18;;;;;;;14.40;1.50;;;13.00;99.90;;;;;;4733335;30;20048;-88
2022/09/17 16:46:44;;;;;;;14.35;1.63;;;13.00;99.90;;;;;;4732859;30;20045;-87
2022/09/17 16:49:41;;;;;;;10.95;1.15;;;13.00;99.90;;;;;;4733248;30;20530;-87
2022/09/17 16:52:09;;;;;;;13.95;1.92;;;12.80;99.90;;;;;;4747268;30;20052;-88
2022/09/17 16:54:35;;;;;;;15.63;2.00;;;12.80;99.90;;;;;;4734151;30;20083;-88
2022/09/17 16:57:01;;;;;;;15.02;1.77;;;12.80;99.90;;;;;;4733172;30;20048;-89
2022/09/17 16:59:27;;;;;;;13.77;1.55;;;12.70;99.90;;;;;;4733509;30;20130;-87
2022/09/17 17:01:55;;;;;;;15.45;1.83;;;12.70;99.90;;;;;;4722457;30;20049;-86
2022/09/17 17:04:21;;;;;;;14.35;2.13;;;12.70;99.90;;;;;;4743828;30;20083;-83
2022/09/17 17:06:47;;;;;;;18.80;2.00;;;12.70;99.90;;;;;;4715655;30;20139;-86
2022/09/17 17:09:13;;;;;;;13.40;1.58;;;12.60;99.90;;;;;;4757016;30;20127;-86
2022/09/17 17:11:39;;;;;;;14.63;1.88;;;12.60;99.90;;;;;;4731118;30;20048;-84
2022/09/17 17:14:05;;;;;;;14.05;1.67;;;12.60;99.90;;;;;;4731141;30;20067;-85
2022/09/17 17:16:31;;;;;;;12.13;2.35;;;12.50;99.90;;;;;;4745660;30;20056;-84
2022/09/17 17:18:57;;;;;;;23.70;2.83;;;12.40;99.90;;;;;;4729732;30;20118;-85
2022/09/17 17:21:23;;;;;;;10.70;2.00;;;12.40;99.90;;;;;;4729411;30;20048;-83
2022/09/17 17:23:48;;;;;;;16.52;1.88;;;12.40;99.90;;;;;;4729810;30;20059;-84
2022/09/17 17:26:15;;;;;;;13.43;1.77;;;12.30;99.90;;;;;;4744720;30;20059;-84
2022/09/17 17:28:41;;;;;;;7.35;1.42;;;12.40;99.90;;;;;;4745520;30;20063;-83
2022/09/17 17:31:06;;;;;;;10.80;1.60;;;12.30;99.90;;;;;;4731455;30;20044;-85
2022/09/17 17:33:32;;;;;;;19.75;1.98;;;12.40;99.90;;;;;;4744915;30;20083;-83
2022/09/17 17:35:59;;;;;;;13.30;1.70;;;12.30;99.90;;;;;;4731272;30;20573;-84
2022/09/17 17:38:26;;;;;;;13.77;1.60;;;12.20;99.90;;;;;;4729864;30;20478;-83
2022/09/17 17:41:07;;;;;;;9.88;1.60;;;12.20;99.90;;;;;;4719398;30;20049;-84
2022/09/17 17:43:34;;;;;;;17.27;1.70;;;12.20;99.90;;;;;;4741917;30;20518;-83
2022/09/17 17:46:00;;;;;;;8.27;1.25;;;12.10;99.90;;;;;;4743600;30;20502;-84
2022/09/17 17:48:26;;;;;;;9.27;1.58;;;12.10;99.90;;;;;;4745115;30;20060;-83
2022/09/17 17:50:52;;;;;;;17.13;1.98;;;12.10;99.90;;;;;;4746047;30;20517;-82
2022/09/17 17:53:18;;;;;;;9.07;1.63;;;12.10;99.90;;;;;;4727128;30;20094;-83
2022/09/17 17:55:55;;;;;;;19.65;2.22;;;12.00;99.90;;;;;;4729398;30;20044;-84
2022/09/17 17:58:21;;;;;;;13.35;1.70;;;12.00;99.90;;;;;;4733637;30;20060;-83
2022/09/17 18:00:46;;;;;;;15.02;2.00;;;12.00;99.90;;;;;;4733354;30;20138;-83
2022/09/17 18:03:12;;;;;;;13.68;1.60;;;12.00;99.90;;;;;;4733563;30;20056;-83
2022/09/17 18:05:39;;;;;;;16.08;2.17;;;12.00;99.90;;;;;;4733538;30;20048;-83
2022/09/17 18:08:04;;;;;;;15.95;2.33;;;12.00;99.90;;;;;;4733465;30;20459;-83
2022/09/17 18:10:30;;;;;;;22.08;2.13;;;11.90;99.90;;;;;;4747861;30;20138;-83
2022/09/17 18:12:56;;;;;;;14.35;2.53;;;11.90;99.90;;;;;;4733986;30;20060;-84
2022/09/17 18:15:22;;;;;;;12.73;1.85;;;11.90;99.90;;;;;;4733060;30;20747;-86
2022/09/17 18:17:48;;;;;;;18.60;2.33;;;11.60;99.90;;;;;;4734467;30;20055;-85
2022/09/17 18:20:15;;;;;;;15.52;1.58;;;11.70;99.90;;;;;;4734425;30;20044;-85
2022/09/17 18:22:40;;;;;;;18.35;2.88;;;11.70;99.90;;;;;;4733209;30;20067;-84
2022/09/17 18:25:07;;;;;;;21.05;2.78;;;11.60;99.90;;;;;;4733035;30;20138;-84
2022/09/17 18:27:32;;;;;;;20.10;3.42;;;11.60;99.90;;;;;;4737894;30;20057;-85
2022/09/17 18:29:58;;;;;;;16.67;3.15;;;11.50;99.90;;;;;;4734072;30;20917;-85
2022/09/17 18:32:24;;;;;;;25.05;3.00;;;11.50;99.90;;;;;;4748516;30;20129;-85
2022/09/17 18:34:50;;;;;;;25.65;3.25;;;11.50;99.90;;;;;;4733292;30;20502;-84
2022/09/17 18:37:15;;;;;;;24.42;3.13;;;11.40;99.90;;;;;;4733621;30;20125;-85
2022/09/17 18:39:41;;;;;;;27.25;2.95;;;11.40;99.90;;;;;;4732719;30;20063;-85
2022/09/17 18:42:07;;;;;;;19.90;2.75;;;11.40;99.90;;;;;;4748312;30;20048;-85
2022/09/17 18:44:33;;;;;;;23.73;3.08;;;11.40;99.90;;;;;;4733501;30;20192;-84
2022/09/17 18:46:59;;;;;;;22.90;2.53;;;11.40;99.90;;;;;;4729947;30;20562;-86
2022/09/17 18:49:25;;;;;;;21.00;2.75;;;11.40;99.90;;;;;;4719659;30;20112;-84
2022/09/17 18:51:50;;;;;;;22.05;2.80;;;11.40;99.90;;;;;;4747835;30;20143;-84
2022/09/17 18:54:16;;;;;;;18.25;2.60;;;11.40;99.90;;;;;;4732138;30;20071;-86
2022/09/17 18:56:42;;;;;;;13.65;2.28;;;11.50;99.90;;;;;;4732752;30;20052;-86
2022/09/17 18:59:08;;;;;;;13.85;2.53;;;11.50;99.90;;;;;;4731401;30;20056;-84
2022/09/17 19:01:34;;;;;;;17.58;2.35;;;11.50;99.90;;;;;;4732862;30;20463;-85
2022/09/17 19:04:00;;;;;;;22.70;2.42;;;11.50;99.90;;;;;;4746587;30;20064;-85
2022/09/17 19:06:27;;;;;;;15.23;2.28;;;11.50;99.90;;;;;;4747692;30;20433;-84
2022/09/17 19:08:54;;;;;;;16.27;2.88;;;11.50;99.90;;;;;;4732004;30;20117;-85
2022/09/17 19:11:20;;;;;;;14.40;2.13;;;11.50;99.90;;;;;;4746776;30;20056;-86
2022/09/17 19:13:48;;;;;;;25.30;2.95;;;11.60;99.90;;;;;;4746747;30;20067;-86
2022/09/17 19:16:16;;;;;;;20.95;3.33;;;11.60;99.90;;;;;;4730056;30;20052;-85
2022/09/17 19:18:42;;;;;;;15.77;1.80;;;11.60;99.90;;;;;;4746317;30;20479;-85
2022/09/17 19:21:12;;;;;;;19.60;2.85;;;11.50;99.90;;;;;;4750344;30;20052;-85
2022/09/17 19:23:40;;;;;;;17.42;2.53;;;11.50;99.90;;;;;;4744137;30;20143;-85
2022/09/17 19:26:08;;;;;;;29.27;3.70;;;11.50;99.90;;;;;;4737542;30;20517;-85
2022/09/17 19:28:35;;;;;;;22.60;3.70;;;11.50;99.90;;;;;;4745444;30;20142;-85
2022/09/17 19:31:09;;;;;;;22.83;2.83;;;11.50;99.90;;;;;;4740105;30;20122;-86
2022/09/17 19:33:35;;;;;;;22.05;3.03;;;11.50;99.90;;;;;;4746607;30;20059;-86
2022/09/17 19:36:03;;;;;;;15.18;2.08;;;11.50;99.90;;;;;;4746821;30;20052;-86
2022/09/17 19:38:29;;;;;;;17.73;2.60;;;11.50;99.90;;;;;;4731950;30;20060;-86
2022/09/17 19:40:58;;;;;;;15.35;2.28;;;11.60;99.90;;;;;;4746748;30;20512;-87
2022/09/17 19:43:25;;;;;;;21.52;2.45;;;11.60;99.90;;;;;;4732309;30;20067;-85
2022/09/17 19:45:52;;;;;;;14.38;2.13;;;11.60;99.90;;;;;;4731821;30;20082;-86
2022/09/17 19:48:18;;;;;;;13.88;2.05;;;11.60;99.90;;;;;;4745912;30;20143;-86
2022/09/17 19:50:51;;;;;;;14.48;1.55;;;11.60;99.90;;;;;;4746273;30;20044;-85
2022/09/17 19:53:17;;;;;;;13.43;1.95;;;11.50;99.90;;;;;;4730753;30;20048;-85
2022/09/17 19:55:43;;;;;;;16.48;2.20;;;11.50;99.90;;;;;;4746010;30;20520;-86
2022/09/17 19:58:09;;;;;;;10.98;1.98;;;11.50;99.90;;;;;;4732067;30;20064;-86
2022/09/17 20:00:35;;;;;;;13.68;1.80;;;11.60;99.90;;;;;;4732073;30;20040;-86
2022/09/17 20:03:02;;;;;;;15.30;2.40;;;11.60;99.90;;;;;;4731752;30;20252;-85
2022/09/17 20:05:29;;;;;;;18.27;2.88;;;11.60;99.90;;;;;;4731567;30;20497;-86
2022/09/17 20:07:55;;;;;;;15.32;2.20;;;11.60;99.90;;;;;;4746141;30;20102;-85
2022/09/17 20:10:22;;;;;;;26.98;2.47;;;11.60;99.90;;;;;;4729985;30;20067;-85
2022/09/17 20:12:47;;;;;;;19.02;2.17;;;11.60;99.90;;;;;;4746555;30;20126;-85
2022/09/17 20:15:13;;;;;;;16.80;2.22;;;11.70;99.90;;;;;;4746143;30;20510;-87
2022/09/17 20:17:42;;;;;;;21.77;2.65;;;11.70;99.90;;;;;;4732048;30;20094;-87
2022/09/17 20:20:11;;;;;;;16.55;2.90;;;11.70;99.90;;;;;;4746965;30;20048;-86
2022/09/17 20:22:47;;;;;;;18.30;3.08;;;11.60;99.90;;;;;;4732785;30;20059;-89
2022/09/17 20:25:53;;;;;;;17.25;2.78;;;11.60;99.90;;;;;;4754386;30;20082;-88
2022/09/17 20:28:38;;;;;;;14.93;1.98;;;11.50;99.90;;;;;;4732377;30;20060;-88
2022/09/17 20:31:12;;;;;;;18.35;2.30;;;11.40;99.90;;;;;;4715027;30;20053;-88
2022/09/17 20:33:41;;;;;;;12.02;1.83;;;11.40;99.90;;;;;;4743809;30;20139;-88
2022/09/17 20:36:10;;;;;;;20.20;2.70;;;11.40;99.90;;;;;;4743791;30;20100;-88
2022/09/17 20:38:36;;;;;;;20.20;2.45;;;11.40;99.90;;;;;;4731182;30;20070;-87
2022/09/17 20:41:05;;;;;;;20.00;3.10;;;11.40;99.90;;;;;;4746373;30;20584;-87
2022/09/17 20:43:35;;;;;;;22.85;2.97;;;11.40;99.90;;;;;;4731305;30;20067;-87
2022/09/17 20:46:01;;;;;;;17.98;2.65;;;11.20;99.90;;;;;;4731591;30;20090;-87
2022/09/17 20:48:37;;;;;;;18.58;2.70;;;11.40;99.90;;;;;;4745814;30;20055;-88
2022/09/17 20:51:07;;;;;;;19.33;3.20;;;11.40;99.90;;;;;;4738969;30;20056;-87
2022/09/17 20:53:35;;;;;;;15.07;2.35;;;11.40;99.90;;;;;;4745231;30;20475;-86
2022/09/17 20:56:03;;;;;;;17.17;1.92;;;11.40;99.90;;;;;;4745824;30;20048;-86
2022/09/17 20:58:32;;;;;;;13.40;1.42;;;11.40;99.90;;;;;;4730824;30;20453;-86
2022/09/17 21:01:07;;;;;;;16.52;2.53;;;11.50;99.90;;;;;;4729366;30;20466;-86
2022/09/17 21:03:33;;;;;;;18.25;1.90;;;11.40;99.90;;;;;;4745632;30;20131;-86
2022/09/17 21:05:59;;;;;;;16.63;2.28;;;11.40;99.90;;;;;;4730813;30;20481;-86
2022/09/17 21:08:26;;;;;;;13.63;2.03;;;11.30;99.90;;;;;;4745101;30;20048;-86